sensor_id;sensor_type;location;lat;lon;timestamp;P1;durP1;ratioP1;P2;durP2;ratioP2
63945;SDS011;50122;56.330;43.838;2022-10-26T00:03:42;5.35;;;2.60;;
63945;SDS011;50122;56.330;43.838;2022-10-26T00:06:11;7.45;;;2.85;;
63945;SDS011;50122;56.330;43.838;2022-10-26T00:08:40;7.15;;;3.65;;
63945;SDS011;50122;56.330;43.838;2022-10-26T00:11:07;7.95;;;3.95;;
63945;SDS011;50122;56.330;43.838;2022-10-26T00:13:37;7.22;;;3.65;;
63945;SDS011;50122;56.330;43.838;2022-10-26T00:16:08;8.23;;;3.90;;
63945;SDS011;50122;56.330;43.838;2022-10-26T00:18:39;11.00;;;3.80;;
63945;SDS011;50122;56.330;43.838;2022-10-26T00:21:06;8.18;;;4.10;;
63945;SDS011;50122;56.330;43.838;2022-10-26T00:23:33;9.80;;;4.15;;
63945;SDS011;50122;56.330;43.838;2022-10-26T00:26:02;9.10;;;4.07;;
63945;SDS011;50122;56.330;43.838;2022-10-26T00:28:29;8.38;;;4.50;;
63945;SDS011;50122;56.330;43.838;2022-10-26T00:30:59;6.93;;;3.17;;
63945;SDS011;50122;56.330;43.838;2022-10-26T00:33:28;5.57;;;3.10;;
63945;SDS011;50122;56.330;43.838;2022-10-26T00:35:56;7.07;;;3.10;;
63945;SDS011;50122;56.330;43.838;2022-10-26T00:38:22;7.10;;;3.50;;
63945;SDS011;50122;56.330;43.838;2022-10-26T00:40:49;6.78;;;3.13;;
63945;SDS011;50122;56.330;43.838;2022-10-26T00:45:45;7.47;;;3.40;;
63945;SDS011;50122;56.330;43.838;2022-10-26T00:48:18;7.03;;;2.92;;
63945;SDS011;50122;56.330;43.838;2022-10-26T00:50:50;6.35;;;3.05;;
63945;SDS011;50122;56.330;43.838;2022-10-26T00:53:19;8.45;;;3.20;;
63945;SDS011;50122;56.330;43.838;2022-10-26T00:55:47;6.78;;;3.15;;
63945;SDS011;50122;56.330;43.838;2022-10-26T00:58:16;7.20;;;3.00;;
63945;SDS011;50122;56.330;43.838;2022-10-26T01:00:44;6.20;;;2.92;;
63945;SDS011;50122;56.330;43.838;2022-10-26T01:03:11;6.75;;;3.03;;
63945;SDS011;50122;56.330;43.838;2022-10-26T01:05:39;8.40;;;3.33;;
63945;SDS011;50122;56.330;43.838;2022-10-26T01:08:08;10.52;;;4.43;;
63945;SDS011;50122;56.330;43.838;2022-10-26T01:10:36;6.43;;;3.22;;
63945;SDS011;50122;56.330;43.838;2022-10-26T01:13:05;8.18;;;3.38;;
63945;SDS011;50122;56.330;43.838;2022-10-26T01:15:46;5.82;;;3.05;;
63945;SDS011;50122;56.330;43.838;2022-10-26T01:18:26;6.25;;;3.00;;
63945;SDS011;50122;56.330;43.838;2022-10-26T01:21:32;9.18;;;3.20;;
63945;SDS011;50122;56.330;43.838;2022-10-26T01:27:17;6.63;;;3.03;;
63945;SDS011;50122;56.330;43.838;2022-10-26T01:32:26;8.13;;;3.17;;
63945;SDS011;50122;56.330;43.838;2022-10-26T01:35:13;9.80;;;3.35;;
63945;SDS011;50122;56.330;43.838;2022-10-26T01:37:46;10.75;;;3.40;;
63945;SDS011;50122;56.330;43.838;2022-10-26T01:40:28;7.60;;;3.30;;
63945;SDS011;50122;56.330;43.838;2022-10-26T01:43:18;9.13;;;3.17;;
63945;SDS011;50122;56.330;43.838;2022-10-26T01:45:46;8.60;;;3.25;;
63945;SDS011;50122;56.330;43.838;2022-10-26T01:48:15;6.10;;;3.20;;
63945;SDS011;50122;56.330;43.838;2022-10-26T01:50:46;8.93;;;3.80;;
63945;SDS011;50122;56.330;43.838;2022-10-26T01:53:16;6.80;;;3.30;;
63945;SDS011;50122;56.330;43.838;2022-10-26T01:55:51;7.63;;;3.47;;
63945;SDS011;50122;56.330;43.838;2022-10-26T02:00:55;7.95;;;3.55;;
63945;SDS011;50122;56.330;43.838;2022-10-26T02:03:31;10.88;;;3.53;;
63945;SDS011;50122;56.330;43.838;2022-10-26T02:06:18;6.72;;;3.55;;
63945;SDS011;50122;56.330;43.838;2022-10-26T02:08:57;7.88;;;4.15;;
63945;SDS011;50122;56.330;43.838;2022-10-26T02:14:11;3.47;;;1.80;;
63945;SDS011;50122;56.330;43.838;2022-10-26T02:16:54;2.85;;;1.50;;
63945;SDS011;50122;56.330;43.838;2022-10-26T02:22:24;4.35;;;1.77;;
63945;SDS011;50122;56.330;43.838;2022-10-26T02:24:56;2.08;;;1.38;;
63945;SDS011;50122;56.330;43.838;2022-10-26T02:27:27;3.38;;;1.70;;
63945;SDS011;50122;56.330;43.838;2022-10-26T02:29:58;3.00;;;1.60;;
63945;SDS011;50122;56.330;43.838;2022-10-26T02:32:28;2.35;;;1.58;;
63945;SDS011;50122;56.330;43.838;2022-10-26T02:34:57;2.03;;;1.50;;
63945;SDS011;50122;56.330;43.838;2022-10-26T02:37:27;4.07;;;2.00;;
63945;SDS011;50122;56.330;43.838;2022-10-26T02:39:55;4.35;;;2.10;;
63945;SDS011;50122;56.330;43.838;2022-10-26T02:42:25;3.85;;;1.92;;
63945;SDS011;50122;56.330;43.838;2022-10-26T02:45:01;5.22;;;2.10;;
63945;SDS011;50122;56.330;43.838;2022-10-26T09:54:34;5.05;;;2.67;;
63945;SDS011;50122;56.330;43.838;2022-10-26T09:57:02;6.00;;;2.83;;
63945;SDS011;50122;56.330;43.838;2022-10-26T09:59:30;11.48;;;3.90;;
63945;SDS011;50122;56.330;43.838;2022-10-26T10:02:00;11.98;;;4.75;;
63945;SDS011;50122;56.330;43.838;2022-10-26T10:04:29;10.00;;;5.38;;
63945;SDS011;50122;56.330;43.838;2022-10-26T10:09:26;6.55;;;3.60;;
63945;SDS011;50122;56.330;43.838;2022-10-26T10:11:54;7.78;;;4.10;;
63945;SDS011;50122;56.330;43.838;2022-10-26T10:14:27;7.32;;;3.60;;
63945;SDS011;50122;56.330;43.838;2022-10-26T10:17:06;7.32;;;3.50;;
63945;SDS011;50122;56.330;43.838;2022-10-26T10:19:44;7.20;;;2.85;;
63945;SDS011;50122;56.330;43.838;2022-10-26T10:24:42;8.73;;;3.90;;
63945;SDS011;50122;56.330;43.838;2022-10-26T10:27:18;6.85;;;3.80;;
63945;SDS011;50122;56.330;43.838;2022-10-26T10:29:46;9.52;;;4.13;;
63945;SDS011;50122;56.330;43.838;2022-10-26T10:34:48;6.93;;;2.78;;
63945;SDS011;50122;56.330;43.838;2022-10-26T10:37:21;6.28;;;3.03;;
63945;SDS011;50122;56.330;43.838;2022-10-26T10:40:18;6.63;;;3.78;;
63945;SDS011;50122;56.330;43.838;2022-10-26T10:42:47;6.95;;;3.80;;
63945;SDS011;50122;56.330;43.838;2022-10-26T10:45:19;7.22;;;3.97;;
63945;SDS011;50122;56.330;43.838;2022-10-26T10:50:56;11.70;;;6.57;;
63945;SDS011;50122;56.330;43.838;2022-10-26T11:10:34;4.75;;;2.95;;
63945;SDS011;50122;56.330;43.838;2022-10-26T11:13:26;5.40;;;2.40;;
63945;SDS011;50122;56.330;43.838;2022-10-26T11:15:54;6.90;;;2.40;;
63945;SDS011;50122;56.330;43.838;2022-10-26T11:18:34;4.50;;;2.55;;
63945;SDS011;50122;56.330;43.838;2022-10-26T11:23:50;8.25;;;3.45;;
63945;SDS011;50122;56.330;43.838;2022-10-26T11:26:32;9.00;;;3.90;;
63945;SDS011;50122;56.330;43.838;2022-10-26T11:29:16;13.85;;;4.22;;
63945;SDS011;50122;56.330;43.838;2022-10-26T11:31:53;8.85;;;4.25;;
63945;SDS011;50122;56.330;43.838;2022-10-26T11:34:30;10.52;;;5.10;;
63945;SDS011;50122;56.330;43.838;2022-10-26T11:37:21;8.77;;;4.13;;
63945;SDS011;50122;56.330;43.838;2022-10-26T11:42:56;9.65;;;3.30;;
63945;SDS011;50122;56.330;43.838;2022-10-26T11:45:36;7.63;;;3.47;;
63945;SDS011;50122;56.330;43.838;2022-10-26T11:48:20;9.35;;;3.30;;
63945;SDS011;50122;56.330;43.838;2022-10-26T11:50:52;4.72;;;2.15;;
63945;SDS011;50122;56.330;43.838;2022-10-26T11:53:23;5.60;;;2.40;;
63945;SDS011;50122;56.330;43.838;2022-10-26T11:55:57;5.50;;;3.20;;
63945;SDS011;50122;56.330;43.838;2022-10-26T11:58:25;12.68;;;5.03;;
63945;SDS011;50122;56.330;43.838;2022-10-26T12:00:54;7.25;;;4.03;;
63945;SDS011;50122;56.330;43.838;2022-10-26T12:03:27;9.02;;;3.60;;
63945;SDS011;50122;56.330;43.838;2022-10-26T12:05:58;9.30;;;4.57;;
63945;SDS011;50122;56.330;43.838;2022-10-26T12:08:26;9.65;;;4.35;;
63945;SDS011;50122;56.330;43.838;2022-10-26T12:13:58;12.77;;;7.35;;
63945;SDS011;50122;56.330;43.838;2022-10-26T12:16:41;12.13;;;6.63;;
63945;SDS011;50122;56.330;43.838;2022-10-26T12:19:16;20.27;;;8.45;;
63945;SDS011;50122;56.330;43.838;2022-10-26T12:21:48;8.32;;;3.95;;
63945;SDS011;50122;56.330;43.838;2022-10-26T12:31:57;6.20;;;2.90;;
63945;SDS011;50122;56.330;43.838;2022-10-26T12:37:33;9.20;;;3.60;;
63945;SDS011;50122;56.330;43.838;2022-10-26T12:45:39;13.35;;;4.88;;
63945;SDS011;50122;56.330;43.838;2022-10-26T12:48:20;7.70;;;3.40;;
63945;SDS011;50122;56.330;43.838;2022-10-26T13:07:18;6.35;;;2.90;;
63945;SDS011;50122;56.330;43.838;2022-10-26T13:09:52;6.20;;;2.95;;
63945;SDS011;50122;56.330;43.838;2022-10-26T13:12:23;8.30;;;4.15;;
63945;SDS011;50122;56.330;43.838;2022-10-26T13:14:58;13.32;;;3.92;;
63945;SDS011;50122;56.330;43.838;2022-10-26T13:17:29;8.73;;;3.13;;
63945;SDS011;50122;56.330;43.838;2022-10-26T13:20:01;7.30;;;2.50;;
63945;SDS011;50122;56.330;43.838;2022-10-26T13:22:30;7.15;;;2.50;;
63945;SDS011;50122;56.330;43.838;2022-10-26T13:24:59;8.25;;;4.18;;
63945;SDS011;50122;56.330;43.838;2022-10-26T13:32:34;10.75;;;5.15;;
63945;SDS011;50122;56.330;43.838;2022-10-26T13:35:04;16.13;;;6.95;;
63945;SDS011;50122;56.330;43.838;2022-10-26T13:37:36;14.38;;;6.03;;
63945;SDS011;50122;56.330;43.838;2022-10-26T13:40:30;16.90;;;5.60;;
63945;SDS011;50122;56.330;43.838;2022-10-26T13:42:57;11.63;;;5.13;;
63945;SDS011;50122;56.330;43.838;2022-10-26T13:45:29;12.73;;;4.88;;
63945;SDS011;50122;56.330;43.838;2022-10-26T13:48:03;10.60;;;4.00;;
63945;SDS011;50122;56.330;43.838;2022-10-26T13:50:45;7.78;;;3.42;;
63945;SDS011;50122;56.330;43.838;2022-10-26T13:56:23;7.97;;;3.55;;
63945;SDS011;50122;56.330;43.838;2022-10-26T14:01:35;8.00;;;3.75;;
63945;SDS011;50122;56.330;43.838;2022-10-26T14:04:16;9.30;;;4.47;;
63945;SDS011;50122;56.330;43.838;2022-10-26T14:06:51;10.77;;;4.80;;
63945;SDS011;50122;56.330;43.838;2022-10-26T14:09:20;12.32;;;5.10;;
63945;SDS011;50122;56.330;43.838;2022-10-26T14:11:48;12.35;;;6.10;;
63945;SDS011;50122;56.330;43.838;2022-10-26T14:14:21;16.02;;;6.40;;
63945;SDS011;50122;56.330;43.838;2022-10-26T14:16:53;13.48;;;5.97;;
63945;SDS011;50122;56.330;43.838;2022-10-26T14:19:24;14.55;;;6.35;;
63945;SDS011;50122;56.330;43.838;2022-10-26T14:21:54;15.10;;;6.95;;
63945;SDS011;50122;56.330;43.838;2022-10-26T14:24:23;12.90;;;6.55;;
63945;SDS011;50122;56.330;43.838;2022-10-26T14:27:18;26.35;;;8.05;;
63945;SDS011;50122;56.330;43.838;2022-10-26T14:29:50;18.98;;;7.45;;
63945;SDS011;50122;56.330;43.838;2022-10-26T14:32:38;15.57;;;7.78;;
63945;SDS011;50122;56.330;43.838;2022-10-26T14:35:09;16.80;;;7.65;;
63945;SDS011;50122;56.330;43.838;2022-10-26T14:40:20;14.82;;;7.45;;
63945;SDS011;50122;56.330;43.838;2022-10-26T14:42:51;16.67;;;7.97;;
63945;SDS011;50122;56.330;43.838;2022-10-26T14:48:17;16.83;;;8.80;;
63945;SDS011;50122;56.330;43.838;2022-10-26T14:51:01;14.95;;;9.50;;
63945;SDS011;50122;56.330;43.838;2022-10-26T14:53:38;19.90;;;9.23;;
63945;SDS011;50122;56.330;43.838;2022-10-26T14:56:17;17.75;;;9.52;;
63945;SDS011;50122;56.330;43.838;2022-10-26T15:01:48;19.67;;;8.73;;
63945;SDS011;50122;56.330;43.838;2022-10-26T15:07:07;15.88;;;7.45;;
63945;SDS011;50122;56.330;43.838;2022-10-26T15:09:43;21.38;;;7.72;;
63945;SDS011;50122;56.330;43.838;2022-10-26T15:14:52;15.65;;;6.53;;
63945;SDS011;50122;56.330;43.838;2022-10-26T15:17:24;18.13;;;6.90;;
63945;SDS011;50122;56.330;43.838;2022-10-26T15:20:05;17.63;;;8.38;;
63945;SDS011;50122;56.330;43.838;2022-10-26T15:22:34;17.95;;;7.53;;
63945;SDS011;50122;56.330;43.838;2022-10-26T15:25:01;25.02;;;9.80;;
63945;SDS011;50122;56.330;43.838;2022-10-26T15:27:30;18.00;;;9.60;;
63945;SDS011;50122;56.330;43.838;2022-10-26T15:30:08;29.88;;;12.55;;
63945;SDS011;50122;56.330;43.838;2022-10-26T15:32:42;26.45;;;11.98;;
63945;SDS011;50122;56.330;43.838;2022-10-26T15:37:45;25.20;;;10.60;;
63945;SDS011;50122;56.330;43.838;2022-10-26T15:40:13;29.42;;;12.98;;
63945;SDS011;50122;56.330;43.838;2022-10-26T15:42:41;26.15;;;13.35;;
63945;SDS011;50122;56.330;43.838;2022-10-26T15:45:14;29.08;;;15.60;;
63945;SDS011;50122;56.330;43.838;2022-10-26T15:47:45;27.88;;;15.32;;
63945;SDS011;50122;56.330;43.838;2022-10-26T15:50:13;24.92;;;14.15;;
63945;SDS011;50122;56.330;43.838;2022-10-26T15:52:42;26.98;;;14.70;;
63945;SDS011;50122;56.330;43.838;2022-10-26T15:55:14;36.17;;;15.63;;
63945;SDS011;50122;56.330;43.838;2022-10-26T15:57:41;33.30;;;15.20;;
63945;SDS011;50122;56.330;43.838;2022-10-26T16:00:12;30.30;;;14.70;;
63945;SDS011;50122;56.330;43.838;2022-10-26T16:02:43;32.65;;;15.45;;
63945;SDS011;50122;56.330;43.838;2022-10-26T16:05:14;29.80;;;15.55;;
63945;SDS011;50122;56.330;43.838;2022-10-26T16:07:42;28.02;;;14.93;;
63945;SDS011;50122;56.330;43.838;2022-10-26T16:10:11;31.30;;;15.32;;
63945;SDS011;50122;56.330;43.838;2022-10-26T16:12:42;29.08;;;15.40;;
63945;SDS011;50122;56.330;43.838;2022-10-26T16:15:13;35.15;;;15.30;;
63945;SDS011;50122;56.330;43.838;2022-10-26T16:17:45;33.72;;;14.45;;
63945;SDS011;50122;56.330;43.838;2022-10-26T16:20:22;32.80;;;15.77;;
63945;SDS011;50122;56.330;43.838;2022-10-26T16:22:52;29.20;;;14.50;;
63945;SDS011;50122;56.330;43.838;2022-10-26T16:25:23;30.35;;;13.68;;
63945;SDS011;50122;56.330;43.838;2022-10-26T16:27:51;32.10;;;14.20;;
63945;SDS011;50122;56.330;43.838;2022-10-26T16:30:20;32.22;;;13.40;;
63945;SDS011;50122;56.330;43.838;2022-10-26T16:32:52;28.05;;;13.57;;
63945;SDS011;50122;56.330;43.838;2022-10-26T16:35:19;25.67;;;13.60;;
63945;SDS011;50122;56.330;43.838;2022-10-26T16:37:45;29.70;;;13.75;;
63945;SDS011;50122;56.330;43.838;2022-10-26T16:40:12;32.17;;;13.32;;
63945;SDS011;50122;56.330;43.838;2022-10-26T16:42:39;32.22;;;13.80;;
63945;SDS011;50122;56.330;43.838;2022-10-26T16:45:13;30.15;;;14.07;;
63945;SDS011;50122;56.330;43.838;2022-10-26T16:47:40;35.40;;;12.57;;
63945;SDS011;50122;56.330;43.838;2022-10-26T16:50:10;27.35;;;11.75;;
63945;SDS011;50122;56.330;43.838;2022-10-26T16:52:39;29.50;;;11.05;;
63945;SDS011;50122;56.330;43.838;2022-10-26T16:55:06;24.27;;;9.02;;
63945;SDS011;50122;56.330;43.838;2022-10-26T16:57:34;17.83;;;7.28;;
63945;SDS011;50122;56.330;43.838;2022-10-26T17:00:02;17.13;;;8.57;;
63945;SDS011;50122;56.330;43.838;2022-10-26T17:02:30;16.10;;;5.78;;
63945;SDS011;50122;56.330;43.838;2022-10-26T17:04:57;13.23;;;5.10;;
63945;SDS011;50122;56.330;43.838;2022-10-26T17:07:29;11.80;;;4.85;;
63945;SDS011;50122;56.330;43.838;2022-10-26T17:09:56;8.75;;;4.35;;
63945;SDS011;50122;56.330;43.838;2022-10-26T17:12:22;12.15;;;4.93;;
63945;SDS011;50122;56.330;43.838;2022-10-26T17:14:49;8.30;;;3.78;;
63945;SDS011;50122;56.330;43.838;2022-10-26T17:17:16;10.18;;;4.05;;
63945;SDS011;50122;56.330;43.838;2022-10-26T17:19:43;9.02;;;3.80;;
63945;SDS011;50122;56.330;43.838;2022-10-26T17:22:09;8.77;;;3.72;;
63945;SDS011;50122;56.330;43.838;2022-10-26T17:24:36;9.70;;;3.58;;
63945;SDS011;50122;56.330;43.838;2022-10-26T17:27:03;11.05;;;3.88;;
63945;SDS011;50122;56.330;43.838;2022-10-26T17:29:32;7.63;;;3.60;;
63945;SDS011;50122;56.330;43.838;2022-10-26T17:32:27;8.57;;;3.50;;
63945;SDS011;50122;56.330;43.838;2022-10-26T17:34:54;7.72;;;3.70;;
63945;SDS011;50122;56.330;43.838;2022-10-26T17:37:21;10.48;;;4.32;;
63945;SDS011;50122;56.330;43.838;2022-10-26T17:39:58;7.38;;;4.20;;
63945;SDS011;50122;56.330;43.838;2022-10-26T17:45:25;9.88;;;4.40;;
63945;SDS011;50122;56.330;43.838;2022-10-26T17:47:52;8.32;;;4.20;;
63945;SDS011;50122;56.330;43.838;2022-10-26T17:50:19;8.15;;;3.90;;
63945;SDS011;50122;56.330;43.838;2022-10-26T17:52:46;7.07;;;3.67;;
63945;SDS011;50122;56.330;43.838;2022-10-26T17:55:12;8.65;;;4.40;;
63945;SDS011;50122;56.330;43.838;2022-10-26T17:57:39;10.50;;;4.43;;
63945;SDS011;50122;56.330;43.838;2022-10-26T18:00:06;10.30;;;4.32;;
63945;SDS011;50122;56.330;43.838;2022-10-26T18:02:33;9.23;;;5.18;;
63945;SDS011;50122;56.330;43.838;2022-10-26T18:05:03;7.82;;;4.72;;
63945;SDS011;50122;56.330;43.838;2022-10-26T18:07:33;8.98;;;4.93;;
63945;SDS011;50122;56.330;43.838;2022-10-26T18:10:01;8.48;;;4.65;;
63945;SDS011;50122;56.330;43.838;2022-10-26T18:12:47;8.85;;;4.45;;
63945;SDS011;50122;56.330;43.838;2022-10-26T18:15:14;8.35;;;4.07;;
63945;SDS011;50122;56.330;43.838;2022-10-26T18:17:41;12.05;;;4.70;;
63945;SDS011;50122;56.330;43.838;2022-10-26T18:20:10;8.48;;;4.47;;
63945;SDS011;50122;56.330;43.838;2022-10-26T18:22:41;7.72;;;4.13;;
63945;SDS011;50122;56.330;43.838;2022-10-26T18:25:22;6.90;;;3.67;;
63945;SDS011;50122;56.330;43.838;2022-10-26T18:27:52;9.63;;;3.55;;
63945;SDS011;50122;56.330;43.838;2022-10-26T18:30:19;8.60;;;3.53;;
63945;SDS011;50122;56.330;43.838;2022-10-26T18:32:50;6.22;;;3.72;;
63945;SDS011;50122;56.330;43.838;2022-10-26T18:35:20;6.55;;;3.45;;
63945;SDS011;50122;56.330;43.838;2022-10-26T18:37:46;8.50;;;3.25;;
63945;SDS011;50122;56.330;43.838;2022-10-26T18:40:14;8.20;;;3.55;;
63945;SDS011;50122;56.330;43.838;2022-10-26T18:42:40;8.27;;;3.83;;
63945;SDS011;50122;56.330;43.838;2022-10-26T18:45:07;7.60;;;3.40;;
63945;SDS011;50122;56.330;43.838;2022-10-26T18:47:34;7.78;;;4.13;;
63945;SDS011;50122;56.330;43.838;2022-10-26T18:50:01;9.85;;;5.30;;
63945;SDS011;50122;56.330;43.838;2022-10-26T18:52:27;13.50;;;4.82;;
63945;SDS011;50122;56.330;43.838;2022-10-26T18:54:56;9.73;;;4.40;;
63945;SDS011;50122;56.330;43.838;2022-10-26T18:57:23;11.00;;;4.10;;
63945;SDS011;50122;56.330;43.838;2022-10-26T18:59:54;8.57;;;4.43;;
63945;SDS011;50122;56.330;43.838;2022-10-26T19:02:20;11.55;;;4.30;;
63945;SDS011;50122;56.330;43.838;2022-10-26T19:04:48;7.40;;;3.75;;
63945;SDS011;50122;56.330;43.838;2022-10-26T19:07:18;6.80;;;3.53;;
63945;SDS011;50122;56.330;43.838;2022-10-26T19:09:45;7.05;;;3.20;;
63945;SDS011;50122;56.330;43.838;2022-10-26T19:12:12;8.07;;;3.60;;
63945;SDS011;50122;56.330;43.838;2022-10-26T19:14:38;7.10;;;3.60;;
63945;SDS011;50122;56.330;43.838;2022-10-26T19:17:05;8.38;;;4.45;;
63945;SDS011;50122;56.330;43.838;2022-10-26T19:19:32;5.93;;;2.97;;
63945;SDS011;50122;56.330;43.838;2022-10-26T19:21:58;6.65;;;3.22;;
63945;SDS011;50122;56.330;43.838;2022-10-26T19:24:26;8.07;;;3.45;;
63945;SDS011;50122;56.330;43.838;2022-10-26T19:26:52;7.95;;;3.00;;
63945;SDS011;50122;56.330;43.838;2022-10-26T19:29:19;7.15;;;3.55;;
63945;SDS011;50122;56.330;43.838;2022-10-26T19:31:47;8.25;;;3.50;;
63945;SDS011;50122;56.330;43.838;2022-10-26T19:34:17;6.40;;;3.33;;
63945;SDS011;50122;56.330;43.838;2022-10-26T19:36:44;6.88;;;3.20;;
63945;SDS011;50122;56.330;43.838;2022-10-26T19:39:13;6.35;;;3.15;;
63945;SDS011;50122;56.330;43.838;2022-10-26T19:41:41;7.18;;;3.50;;
63945;SDS011;50122;56.330;43.838;2022-10-26T19:44:09;8.38;;;3.80;;
63945;SDS011;50122;56.330;43.838;2022-10-26T19:46:36;9.52;;;3.42;;
63945;SDS011;50122;56.330;43.838;2022-10-26T19:49:03;8.20;;;3.47;;
63945;SDS011;50122;56.330;43.838;2022-10-26T19:51:30;10.45;;;5.55;;
63945;SDS011;50122;56.330;43.838;2022-10-26T19:53:57;16.90;;;6.30;;
63945;SDS011;50122;56.330;43.838;2022-10-26T19:56:29;14.85;;;6.63;;
63945;SDS011;50122;56.330;43.838;2022-10-26T19:58:56;12.48;;;5.70;;
63945;SDS011;50122;56.330;43.838;2022-10-26T20:01:23;11.05;;;5.18;;
63945;SDS011;50122;56.330;43.838;2022-10-26T20:03:50;10.35;;;4.65;;
63945;SDS011;50122;56.330;43.838;2022-10-26T20:06:17;12.13;;;5.25;;
63945;SDS011;50122;56.330;43.838;2022-10-26T20:08:45;8.50;;;4.68;;
63945;SDS011;50122;56.330;43.838;2022-10-26T20:11:13;9.80;;;4.18;;
63945;SDS011;50122;56.330;43.838;2022-10-26T20:13:42;7.88;;;4.15;;
63945;SDS011;50122;56.330;43.838;2022-10-26T20:16:10;6.80;;;3.80;;
63945;SDS011;50122;56.330;43.838;2022-10-26T20:18:39;7.80;;;3.63;;
63945;SDS011;50122;56.330;43.838;2022-10-26T20:21:14;9.25;;;3.60;;
63945;SDS011;50122;56.330;43.838;2022-10-26T20:23:41;6.47;;;3.50;;
63945;SDS011;50122;56.330;43.838;2022-10-26T20:26:09;6.03;;;3.70;;
63945;SDS011;50122;56.330;43.838;2022-10-26T20:28:45;8.70;;;3.10;;
63945;SDS011;50122;56.330;43.838;2022-10-26T20:31:12;6.63;;;3.08;;
63945;SDS011;50122;56.330;43.838;2022-10-26T20:33:39;8.13;;;3.42;;
63945;SDS011;50122;56.330;43.838;2022-10-26T20:36:05;9.75;;;3.25;;
63945;SDS011;50122;56.330;43.838;2022-10-26T20:38:33;5.88;;;3.00;;
63945;SDS011;50122;56.330;43.838;2022-10-26T20:41:00;6.65;;;3.58;;
63945;SDS011;50122;56.330;43.838;2022-10-26T20:43:34;6.65;;;2.95;;
63945;SDS011;50122;56.330;43.838;2022-10-26T20:46:05;8.90;;;3.05;;
63945;SDS011;50122;56.330;43.838;2022-10-26T20:48:35;8.00;;;3.25;;
63945;SDS011;50122;56.330;43.838;2022-10-26T20:51:10;5.32;;;3.03;;
63945;SDS011;50122;56.330;43.838;2022-10-26T20:53:49;6.25;;;3.17;;
63945;SDS011;50122;56.330;43.838;2022-10-26T20:56:22;7.32;;;3.60;;
63945;SDS011;50122;56.330;43.838;2022-10-26T20:58:55;7.90;;;3.00;;
63945;SDS011;50122;56.330;43.838;2022-10-26T21:01:24;6.35;;;3.22;;
63945;SDS011;50122;56.330;43.838;2022-10-26T21:03:57;5.10;;;3.13;;
63945;SDS011;50122;56.330;43.838;2022-10-26T21:06:25;8.00;;;3.13;;
63945;SDS011;50122;56.330;43.838;2022-10-26T21:08:52;6.97;;;3.20;;
63945;SDS011;50122;56.330;43.838;2022-10-26T21:11:21;6.47;;;2.80;;
63945;SDS011;50122;56.330;43.838;2022-10-26T21:13:51;5.47;;;2.90;;
63945;SDS011;50122;56.330;43.838;2022-10-26T21:16:18;7.40;;;2.90;;
63945;SDS011;50122;56.330;43.838;2022-10-26T21:18:51;8.15;;;2.80;;
63945;SDS011;50122;56.330;43.838;2022-10-26T21:21:17;5.30;;;2.70;;
63945;SDS011;50122;56.330;43.838;2022-10-26T21:23:44;6.05;;;2.80;;
63945;SDS011;50122;56.330;43.838;2022-10-26T21:26:10;4.85;;;2.55;;
63945;SDS011;50122;56.330;43.838;2022-10-26T21:28:38;4.50;;;2.50;;
63945;SDS011;50122;56.330;43.838;2022-10-26T21:31:13;5.55;;;2.80;;
63945;SDS011;50122;56.330;43.838;2022-10-26T21:33:42;8.57;;;2.80;;
63945;SDS011;50122;56.330;43.838;2022-10-26T21:36:11;5.25;;;2.60;;
63945;SDS011;50122;56.330;43.838;2022-10-26T21:38:40;7.30;;;2.70;;
63945;SDS011;50122;56.330;43.838;2022-10-26T21:41:09;5.65;;;3.10;;
63945;SDS011;50122;56.330;43.838;2022-10-26T21:43:37;6.75;;;3.13;;
63945;SDS011;50122;56.330;43.838;2022-10-26T21:46:06;8.43;;;2.85;;
63945;SDS011;50122;56.330;43.838;2022-10-26T21:48:34;8.38;;;3.70;;
63945;SDS011;50122;56.330;43.838;2022-10-26T21:51:01;9.02;;;4.00;;
63945;SDS011;50122;56.330;43.838;2022-10-26T21:53:29;9.98;;;4.15;;
63945;SDS011;50122;56.330;43.838;2022-10-26T21:55:59;11.00;;;4.03;;
63945;SDS011;50122;56.330;43.838;2022-10-26T21:58:30;9.63;;;4.97;;
63945;SDS011;50122;56.330;43.838;2022-10-26T22:03:53;8.30;;;4.10;;
63945;SDS011;50122;56.330;43.838;2022-10-26T22:06:21;13.88;;;4.40;;
63945;SDS011;50122;56.330;43.838;2022-10-26T22:08:47;8.88;;;4.07;;
63945;SDS011;50122;56.330;43.838;2022-10-26T22:11:15;7.57;;;3.53;;
63945;SDS011;50122;56.330;43.838;2022-10-26T22:13:44;9.25;;;3.75;;
63945;SDS011;50122;56.330;43.838;2022-10-26T22:16:12;6.10;;;2.95;;
63945;SDS011;50122;56.330;43.838;2022-10-26T22:18:42;8.52;;;3.20;;
63945;SDS011;50122;56.330;43.838;2022-10-26T22:21:10;7.75;;;3.30;;
63945;SDS011;50122;56.330;43.838;2022-10-26T22:23:37;9.90;;;3.40;;
63945;SDS011;50122;56.330;43.838;2022-10-26T22:26:06;6.35;;;3.28;;
63945;SDS011;50122;56.330;43.838;2022-10-26T22:28:38;9.15;;;3.20;;
63945;SDS011;50122;56.330;43.838;2022-10-26T22:31:18;5.50;;;2.72;;
63945;SDS011;50122;56.330;43.838;2022-10-26T22:33:52;5.97;;;2.80;;
63945;SDS011;50122;56.330;43.838;2022-10-26T22:36:20;6.43;;;3.03;;
63945;SDS011;50122;56.330;43.838;2022-10-26T22:38:47;8.10;;;2.90;;
63945;SDS011;50122;56.330;43.838;2022-10-26T22:41:16;6.32;;;3.10;;
63945;SDS011;50122;56.330;43.838;2022-10-26T22:43:45;5.70;;;3.03;;
63945;SDS011;50122;56.330;43.838;2022-10-26T22:46:16;6.25;;;3.15;;
63945;SDS011;50122;56.330;43.838;2022-10-26T22:48:45;5.97;;;3.17;;
63945;SDS011;50122;56.330;43.838;2022-10-26T22:51:16;6.30;;;3.17;;
63945;SDS011;50122;56.330;43.838;2022-10-26T22:53:45;7.85;;;3.50;;
63945;SDS011;50122;56.330;43.838;2022-10-26T22:56:17;6.60;;;3.53;;
63945;SDS011;50122;56.330;43.838;2022-10-26T22:58:44;8.90;;;3.20;;
63945;SDS011;50122;56.330;43.838;2022-10-26T23:01:12;7.05;;;3.45;;
63945;SDS011;50122;56.330;43.838;2022-10-26T23:03:43;8.27;;;3.65;;
63945;SDS011;50122;56.330;43.838;2022-10-26T23:06:11;11.63;;;4.05;;
63945;SDS011;50122;56.330;43.838;2022-10-26T23:08:40;6.20;;;3.50;;
63945;SDS011;50122;56.330;43.838;2022-10-26T23:11:11;6.72;;;3.60;;
63945;SDS011;50122;56.330;43.838;2022-10-26T23:13:40;8.73;;;3.58;;
63945;SDS011;50122;56.330;43.838;2022-10-26T23:16:10;7.45;;;3.63;;
63945;SDS011;50122;56.330;43.838;2022-10-26T23:18:39;8.00;;;3.50;;
63945;SDS011;50122;56.330;43.838;2022-10-26T23:21:07;8.95;;;4.05;;
63945;SDS011;50122;56.330;43.838;2022-10-26T23:23:34;8.68;;;3.72;;
63945;SDS011;50122;56.330;43.838;2022-10-26T23:26:02;7.80;;;3.78;;
63945;SDS011;50122;56.330;43.838;2022-10-26T23:28:32;13.20;;;3.85;;
63945;SDS011;50122;56.330;43.838;2022-10-26T23:31:00;6.10;;;3.42;;
63945;SDS011;50122;56.330;43.838;2022-10-26T23:33:27;8.52;;;3.30;;
63945;SDS011;50122;56.330;43.838;2022-10-26T23:35:54;6.80;;;3.55;;
63945;SDS011;50122;56.330;43.838;2022-10-26T23:38:20;6.53;;;3.13;;
63945;SDS011;50122;56.330;43.838;2022-10-26T23:40:57;5.43;;;3.13;;
63945;SDS011;50122;56.330;43.838;2022-10-26T23:43:25;7.20;;;2.88;;
63945;SDS011;50122;56.330;43.838;2022-10-26T23:45:53;10.13;;;3.25;;
63945;SDS011;50122;56.330;43.838;2022-10-26T23:48:20;6.88;;;3.40;;
63945;SDS011;50122;56.330;43.838;2022-10-26T23:50:48;6.10;;;3.17;;
63945;SDS011;50122;56.330;43.838;2022-10-26T23:53:17;6.38;;;2.95;;
63945;SDS011;50122;56.330;43.838;2022-10-26T23:55:46;6.75;;;3.10;;
63945;SDS011;50122;56.330;43.838;2022-10-26T23:58:13;5.25;;;2.92;;
